Time;durP1;ratioP1;P1;durP2;ratioP2;P2;SDS_P1;SDS_P2;PMS_P1;PMS_P2;Temp;Humidity;BMP_temperature;BMP_pressure;BME280_temperature;BME280_humidity;BME280_pressure;Samples;Min_cycle;Max_cycle;Signal;HPM_P1;HPM_P2
2021/12/15 00:02:11;;;;;;;52.40;34.05;;;;;;;4.45;65.54;102417.22;5012168;28;20088;-62
2021/12/15 00:04:39;;;;;;;50.40;33.22;;;;;;;4.43;65.53;102419.81;5012074;28;20096;-63
2021/12/15 00:07:06;;;;;;;46.97;32.83;;;;;;;4.46;65.45;102426.75;5012165;28;20053;-63
2021/12/15 00:09:33;;;;;;;49.58;32.45;;;;;;;4.47;65.36;102431.94;5011995;28;20108;-63
2021/12/15 00:12:03;;;;;;;48.50;32.25;;;;;;;4.48;65.63;102431.09;5011935;28;20045;-67
2021/12/15 00:14:31;;;;;;;48.92;32.92;;;;;;;4.46;65.57;102435.41;5002111;28;20046;-71
2021/12/15 00:16:58;;;;;;;54.65;33.10;;;;;;;4.40;65.76;102432.84;5007356;28;20046;-62
2021/12/15 00:19:27;;;;;;;55.30;32.85;;;;;;;4.40;65.49;102430.22;4995544;28;20043;-61
2021/12/15 00:21:56;;;;;;;51.28;33.33;;;;;;;4.42;65.58;102428.50;4995411;28;21767;-64
2021/12/15 00:24:24;;;;;;;51.67;33.50;;;;;;;4.40;65.73;102435.44;4995334;28;20096;-62
2021/12/15 00:26:53;;;;;;;48.53;33.00;;;;;;;4.38;65.53;102437.16;5007729;28;20046;-62
2021/12/15 00:29:20;;;;;;;47.95;30.80;;;;;;;4.39;65.54;102439.78;4994418;28;20050;-63
2021/12/15 00:31:48;;;;;;;48.00;33.13;;;;;;;4.36;65.47;102431.97;4995223;28;20050;-68
2021/12/15 00:34:16;;;;;;;48.50;32.08;;;;;;;4.35;65.49;102431.97;4995436;28;20046;-62
2021/12/15 00:36:44;;;;;;;51.47;32.67;;;;;;;4.34;65.74;102435.44;4995229;28;20051;-67
2021/12/15 00:39:14;;;;;;;49.20;33.30;;;;;;;4.32;65.78;102434.59;4995097;28;20038;-62
2021/12/15 00:41:41;;;;;;;53.28;33.20;;;;;;;4.30;65.51;102434.59;4995166;28;20046;-68
2021/12/15 00:44:10;;;;;;;46.90;31.63;;;;;;;4.31;65.55;102430.28;5008317;28;20056;-62
2021/12/15 00:46:38;;;;;;;48.20;31.25;;;;;;;4.32;65.58;102429.41;4990971;28;20045;-63
2021/12/15 00:49:07;;;;;;;49.85;32.50;;;;;;;4.29;65.57;102424.22;5014651;28;20046;-74
2021/12/15 00:51:37;;;;;;;50.47;32.20;;;;;;;4.29;65.50;102421.59;5014618;28;20038;-63
2021/12/15 00:54:05;;;;;;;48.75;31.95;;;;;;;4.28;65.57;102433.75;5014382;28;20062;-62
2021/12/15 00:56:34;;;;;;;49.10;31.92;;;;;;;4.26;65.64;102432.88;5014523;28;20042;-62
2021/12/15 00:59:04;;;;;;;51.65;32.53;;;;;;;4.23;65.86;102438.94;5014377;28;20050;-66
2021/12/15 01:01:31;;;;;;;51.63;32.35;;;;;;;4.24;65.50;102438.09;5014276;28;20050;-69
2021/12/15 01:03:59;;;;;;;45.22;31.83;;;;;;;4.23;65.66;102438.94;5008426;28;20498;-64
2021/12/15 01:06:28;;;;;;;49.05;32.53;;;;;;;4.23;65.62;102432.91;5014379;28;20056;-73
2021/12/15 01:09:03;;;;;;;50.10;30.33;;;;;;;4.23;65.61;102446.75;5014449;28;20042;-64
2021/12/15 01:19:54;;;;;;;46.60;29.05;;;;;;;4.06;65.88;102459.78;5007700;28;20065;-63
2021/12/15 01:22:35;;;;;;;47.65;30.80;;;;;;;4.05;65.67;102467.56;4993676;28;20445;-65
2021/12/15 01:25:09;;;;;;;45.30;30.67;;;;;;;4.04;65.83;102465.84;5009134;28;20054;-62
2021/12/15 01:27:37;;;;;;;49.50;30.33;;;;;;;3.98;65.84;102465.84;5014109;28;20457;-65
2021/12/15 01:30:06;;;;;;;47.30;31.00;;;;;;;3.97;65.75;102462.38;5013753;28;20046;-74
2021/12/15 01:32:32;;;;;;;49.75;31.77;;;;;;;3.97;65.58;102457.19;5013923;28;20046;-73
2021/12/15 01:34:59;;;;;;;48.80;31.10;;;;;;;4.00;65.56;102458.91;5013495;28;20050;-63
2021/12/15 01:37:27;;;;;;;47.55;30.15;;;;;;;4.00;65.64;102464.97;5002636;28;20050;-63
2021/12/15 01:39:55;;;;;;;52.42;31.35;;;;;;;3.98;65.81;102471.03;5013722;28;20049;-74
2021/12/15 01:42:26;;;;;;;44.47;29.85;;;;;;;3.95;65.70;102471.91;5013711;28;20064;-63
2021/12/15 01:47:39;;;;;;;47.65;30.50;;;;;;;3.98;65.72;102458.06;5013486;28;20042;-75
2021/12/15 01:50:09;;;;;;;47.08;30.70;;;;;;;3.95;65.54;102451.13;5013504;28;20403;-62
2021/12/15 01:52:39;;;;;;;46.40;29.73;;;;;;;3.94;65.67;102454.59;4998494;28;20419;-74
2021/12/15 01:55:16;;;;;;;46.17;27.90;;;;;;;3.93;65.67;102461.50;4981221;28;20050;-63
2021/12/15 01:57:43;;;;;;;48.22;28.20;;;;;;;3.90;65.98;102453.72;4993730;28;20066;-63
2021/12/15 02:00:19;;;;;;;45.55;29.67;;;;;;;3.88;65.75;102459.78;4993634;28;20046;-64
2021/12/15 02:02:46;;;;;;;44.08;29.52;;;;;;;3.86;65.61;102462.41;4993672;28;20050;-62
2021/12/15 02:05:14;;;;;;;39.10;27.48;;;;;;;3.84;65.55;102460.66;4993584;28;20423;-66
2021/12/15 02:07:43;;;;;;;42.40;26.45;;;;;;;3.84;65.53;102453.72;4993281;28;20051;-62
2021/12/15 02:10:11;;;;;;;38.55;26.05;;;;;;;3.85;65.81;102458.06;4991584;28;20038;-75
2021/12/15 02:12:55;;;;;;;37.30;25.65;;;;;;;3.85;65.52;102465.84;4993550;28;20402;-62
2021/12/15 02:15:29;;;;;;;40.63;26.13;;;;;;;3.85;65.52;102460.66;4992440;28;20065;-71
2021/12/15 02:17:57;;;;;;;38.63;24.10;;;;;;;3.87;65.49;102473.63;4993416;28;20105;-74
2021/12/15 02:20:36;;;;;;;38.05;25.13;;;;;;;3.85;65.38;102465.00;4992447;28;20050;-70
2021/12/15 02:23:05;;;;;;;36.65;23.73;;;;;;;3.83;65.47;102470.16;4993164;28;20383;-62
2021/12/15 02:25:32;;;;;;;37.30;26.75;;;;;;;3.73;65.36;102471.03;4992935;28;20054;-62
2021/12/15 02:28:01;;;;;;;41.88;27.27;;;;;;;3.70;65.34;102469.31;4993343;28;20112;-72
2021/12/15 02:38:29;;;;;;;39.90;28.42;;;;;;;3.64;65.25;102466.72;4993085;28;20047;-67
2021/12/15 02:41:05;;;;;;;40.88;27.10;;;;;;;3.62;65.17;102463.28;4992768;28;20430;-62
2021/12/15 02:43:31;;;;;;;;;;;;;;;3.64;65.10;102466.72;5000904;28;20544;-63
2021/12/15 02:45:58;;;;;;;41.22;27.02;;;;;;;3.65;65.18;102467.59;5011810;28;19975;-62
2021/12/15 02:48:25;;;;;;;38.50;27.40;;;;;;;3.64;64.86;102466.72;5012598;28;20037;-63
2021/12/15 02:50:52;;;;;;;45.20;29.30;;;;;;;3.63;65.13;102467.59;5012379;28;20050;-74
2021/12/15 02:53:19;;;;;;;41.05;27.27;;;;;;;3.60;64.92;102471.03;5012506;28;20041;-74
2021/12/15 02:55:46;;;;;;;38.03;27.17;;;;;;;3.59;65.15;102471.03;5012437;28;20057;-62
2021/12/15 02:58:13;;;;;;;42.88;28.67;;;;;;;3.57;65.12;102468.44;5012614;28;20042;-73
2021/12/15 03:00:47;;;;;;;41.05;28.00;;;;;;;3.56;65.13;102463.25;5002059;28;20041;-67
2021/12/15 03:06:15;;;;;;;40.30;25.77;;;;;;;3.51;65.23;102465.00;5012239;28;20493;-63
2021/12/15 03:09:08;;;;;;;39.60;25.98;;;;;;;3.51;65.02;102465.84;4985081;28;20042;-63
2021/12/15 03:17:05;;;;;;;42.13;25.80;;;;;;;3.47;64.96;102471.06;5010315;28;20050;-63
2021/12/15 03:19:32;;;;;;;42.97;25.98;;;;;;;3.47;64.89;102464.13;5012213;28;20077;-66
2021/12/15 03:21:59;;;;;;;39.40;25.77;;;;;;;3.46;64.90;102477.09;5012024;28;20100;-67
2021/12/15 03:24:27;;;;;;;39.40;24.95;;;;;;;3.41;64.88;102472.75;5012256;28;20042;-64
2021/12/15 03:27:05;;;;;;;45.08;26.30;;;;;;;3.40;64.74;102477.94;5014649;28;20050;-62
2021/12/15 03:33:29;;;;;;;;;;;;;;;3.39;64.77;102474.50;5009049;28;20049;-62
2021/12/15 03:37:53;;;;;;;39.92;27.55;;;;;;;3.36;64.73;102471.03;5015929;28;20869;-63
2021/12/15 03:40:26;;;;;;;41.75;28.38;;;;;;;3.33;64.79;102474.47;5016031;28;20383;-72
2021/12/15 03:42:54;;;;;;;42.13;26.90;;;;;;;3.32;64.86;102467.56;5015577;28;20045;-70
2021/12/15 03:45:26;;;;;;;44.30;27.02;;;;;;;3.33;64.73;102461.50;5015851;28;20057;-73
2021/12/15 03:48:04;;;;;;;40.47;27.70;;;;;;;3.30;64.81;102471.00;5015660;28;20046;-74
2021/12/15 03:50:34;;;;;;;39.58;27.35;;;;;;;3.30;64.96;102473.59;5008302;28;20056;-62
2021/12/15 03:53:02;;;;;;;36.58;26.63;;;;;;;3.32;64.88;102472.75;5015547;28;20046;-66
2021/12/15 03:55:32;;;;;;;44.17;27.05;;;;;;;3.30;64.75;102474.50;5015726;28;20061;-62
2021/12/15 03:58:01;;;;;;;39.58;26.27;;;;;;;3.29;65.03;102472.75;5015454;28;20056;-63
2021/12/15 04:00:29;;;;;;;37.60;24.23;;;;;;;3.29;65.01;102475.34;5015734;28;20041;-65
2021/12/15 04:02:57;;;;;;;40.88;26.90;;;;;;;3.26;65.03;102475.31;5005641;28;20050;-62
2021/12/15 04:05:24;;;;;;;37.50;25.23;;;;;;;3.21;64.91;102477.03;4999155;28;20046;-62
2021/12/15 04:07:52;;;;;;;39.17;24.95;;;;;;;3.16;65.25;102483.97;5008802;28;20129;-64
2021/12/15 04:10:23;;;;;;;41.85;26.02;;;;;;;3.12;65.09;102484.81;5012114;28;20053;-63
2021/12/15 04:12:51;;;;;;;43.55;25.15;;;;;;;3.11;65.12;102483.94;5011950;28;20073;-62
2021/12/15 04:17:53;;;;;;;43.13;24.27;;;;;;;3.04;64.77;102497.78;5012364;28;20045;-66
2021/12/15 04:20:22;;;;;;;41.05;25.02;;;;;;;3.01;64.83;102490.84;5011938;28;20052;-72
2021/12/15 04:22:50;;;;;;;39.53;23.67;;;;;;;2.99;64.82;102494.28;5007775;28;20081;-63
2021/12/15 04:25:24;;;;;;;41.72;24.63;;;;;;;3.02;64.32;102491.69;5008376;28;20049;-66
2021/12/15 04:27:55;;;;;;;39.65;24.60;;;;;;;3.00;64.39;102488.25;5011660;28;20042;-64
2021/12/15 04:30:24;;;;;;;42.50;25.63;;;;;;;3.02;64.48;102495.19;5011833;28;20053;-63
2021/12/15 04:32:51;;;;;;;44.78;24.50;;;;;;;3.02;64.32;102484.81;5012053;28;20046;-63
2021/12/15 04:35:18;;;;;;;39.22;25.08;;;;;;;3.05;64.24;102483.94;5011012;28;20395;-69
2021/12/15 04:37:46;;;;;;;40.30;24.23;;;;;;;3.05;64.33;102478.75;5011041;28;20415;-62
2021/12/15 04:40:16;;;;;;;41.30;23.90;;;;;;;3.05;64.45;102478.75;5001023;28;20101;-66
2021/12/15 04:42:43;;;;;;;36.70;23.40;;;;;;;3.02;64.45;102484.81;4984321;28;20125;-69
2021/12/15 04:45:14;;;;;;;42.30;23.58;;;;;;;3.01;64.65;102489.97;5011218;28;20042;-63
2021/12/15 04:47:50;;;;;;;40.47;22.75;;;;;;;3.01;64.57;102485.66;5011202;28;20057;-62
2021/12/15 04:50:21;;;;;;;41.97;23.77;;;;;;;3.00;64.66;102491.69;5011394;28;20057;-63
2021/12/15 04:52:49;;;;;;;42.05;23.23;;;;;;;3.00;64.82;102485.66;4990887;28;20502;-66
2021/12/15 04:55:16;;;;;;;35.25;22.90;;;;;;;2.99;64.93;102497.75;4989869;28;20042;-73
2021/12/15 04:57:43;;;;;;;38.80;23.95;;;;;;;2.99;64.94;102484.78;4992016;28;20108;-69
2021/12/15 05:00:17;;;;;;;35.83;24.17;;;;;;;3.01;64.79;102490.84;4991966;28;20054;-70
2021/12/15 05:02:43;;;;;;;38.53;24.27;;;;;;;2.98;64.94;102490.81;4991585;28;20112;-70
2021/12/15 05:05:10;;;;;;;36.90;23.10;;;;;;;2.97;65.09;102493.41;4991897;28;20123;-65
2021/12/15 05:07:38;;;;;;;35.88;24.45;;;;;;;2.98;64.84;102489.97;4991736;28;20046;-62
2021/12/15 05:10:06;;;;;;;40.40;24.50;;;;;;;2.98;64.81;102496.00;4991602;28;20046;-63
2021/12/15 05:12:33;;;;;;;37.38;25.27;;;;;;;3.01;64.84;102489.97;4990329;28;20097;-62
2021/12/15 05:14:59;;;;;;;40.65;23.88;;;;;;;3.01;64.83;102487.38;4991569;28;20073;-63
2021/12/15 05:17:26;;;;;;;49.30;24.27;;;;;;;3.03;64.88;102496.03;4991744;28;20046;-63
2021/12/15 05:19:58;;;;;;;38.97;22.75;;;;;;;3.03;65.00;102506.41;4991237;28;20046;-63
2021/12/15 05:22:25;;;;;;;43.17;22.60;;;;;;;3.00;64.96;102509.84;4991466;28;20046;-74
2021/12/15 05:24:51;;;;;;;40.15;25.35;;;;;;;3.01;65.06;102505.50;4991081;28;20046;-63
2021/12/15 05:27:18;;;;;;;45.80;24.77;;;;;;;2.96;65.11;102507.22;4991407;28;20042;-65
2021/12/15 05:29:47;;;;;;;49.28;25.45;;;;;;;2.97;65.09;102515.03;4989676;28;20058;-74
2021/12/15 05:32:18;;;;;;;43.00;25.15;;;;;;;2.96;65.11;102520.19;4991313;28;20407;-64
2021/12/15 05:34:50;;;;;;;42.50;25.30;;;;;;;2.96;64.89;102522.78;4991110;28;20058;-62
2021/12/15 05:37:21;;;;;;;49.05;25.98;;;;;;;2.96;65.10;102523.69;4991112;28;20411;-62
2021/12/15 05:39:51;;;;;;;43.10;25.73;;;;;;;2.97;65.01;102521.94;4990972;28;20108;-62
2021/12/15 05:42:21;;;;;;;40.88;26.13;;;;;;;2.97;65.10;102519.34;4991048;28;20042;-63
2021/12/15 05:44:49;;;;;;;41.50;25.48;;;;;;;2.97;65.23;102529.72;4991222;28;20058;-65
2021/12/15 05:47:18;;;;;;;38.13;24.52;;;;;;;2.99;65.23;102533.19;4990115;28;20053;-68
2021/12/15 05:49:45;;;;;;;37.05;24.23;;;;;;;2.98;65.46;102536.63;4989828;28;20054;-67
2021/12/15 05:52:12;;;;;;;42.75;22.90;;;;;;;2.93;65.70;102534.00;5003271;28;20411;-62
2021/12/15 05:54:39;;;;;;;51.42;25.38;;;;;;;2.90;65.62;102531.44;4990884;28;20050;-62
2021/12/15 05:57:06;;;;;;;39.70;23.40;;;;;;;2.88;65.68;102536.59;4990747;28;20051;-62
2021/12/15 05:59:33;;;;;;;37.53;22.42;;;;;;;2.88;65.88;102543.50;4990452;28;20423;-68
2021/12/15 06:02:00;;;;;;;33.20;22.08;;;;;;;2.92;65.48;102542.66;5000728;28;20045;-58
2021/12/15 06:04:27;;;;;;;34.58;21.45;;;;;;;2.94;65.66;102546.13;4993800;28;20074;-58
2021/12/15 06:06:54;;;;;;;38.08;22.23;;;;;;;2.98;65.45;102547.00;4990480;28;20050;-61
2021/12/15 06:09:20;;;;;;;38.70;22.27;;;;;;;2.99;65.66;102551.34;4990479;28;20046;-64
2021/12/15 06:11:49;;;;;;;41.67;22.63;;;;;;;2.94;65.78;102543.53;4990149;28;20042;-58
2021/12/15 06:14:23;;;;;;;39.42;22.02;;;;;;;2.96;65.73;102548.72;4989790;28;20457;-59
2021/12/15 06:16:56;;;;;;;39.30;21.45;;;;;;;2.98;65.70;102552.19;4990060;28;20680;-58
2021/12/15 06:19:23;;;;;;;39.60;20.73;;;;;;;2.99;65.84;102556.53;4990230;28;20046;-67
2021/12/15 06:21:50;;;;;;;38.05;22.65;;;;;;;2.98;65.68;102563.44;4991162;28;20069;-59
2021/12/15 06:24:17;;;;;;;37.72;22.00;;;;;;;2.97;65.86;102559.13;4990131;28;20061;-58
2021/12/15 06:26:44;;;;;;;33.47;21.20;;;;;;;2.98;65.90;102567.75;4990121;28;20054;-61
2021/12/15 06:29:10;;;;;;;39.17;22.63;;;;;;;2.94;65.87;102574.66;4989744;28;20564;-58
2021/12/15 06:31:38;;;;;;;41.70;24.02;;;;;;;2.91;65.93;102567.72;4990236;28;20050;-61
2021/12/15 06:34:05;;;;;;;36.92;21.13;;;;;;;2.94;65.87;102579.84;4989804;28;20046;-67
2021/12/15 06:36:33;;;;;;;31.33;19.65;;;;;;;2.94;66.02;102582.44;4989462;28;20054;-59
2021/12/15 06:39:01;;;;;;;31.50;20.42;;;;;;;2.96;65.80;102585.03;4989013;28;20563;-58
2021/12/15 06:41:27;;;;;;;33.05;21.20;;;;;;;2.95;65.83;102581.56;4990048;28;20054;-58
2021/12/15 06:43:57;;;;;;;39.28;23.20;;;;;;;2.92;66.11;102587.63;4989640;28;20539;-58
2021/12/15 06:59:56;;;;;;;32.20;18.95;;;;;;;2.97;65.62;102602.31;5006681;28;20050;-68
2021/12/15 07:02:24;;;;;;;31.75;19.27;;;;;;;2.92;65.93;102598.00;5005237;28;20050;-59
2021/12/15 07:04:51;;;;;;;31.05;19.17;;;;;;;2.96;65.81;102601.47;5006052;28;20054;-59
2021/12/15 07:07:18;;;;;;;28.70;18.90;;;;;;;2.98;65.66;102601.47;4997564;28;20038;-59
2021/12/15 07:09:45;;;;;;;30.55;18.13;;;;;;;3.01;65.58;102604.06;5007841;28;20038;-59
2021/12/15 07:12:12;;;;;;;29.38;18.48;;;;;;;3.01;65.49;102611.84;5007941;28;20045;-59
2021/12/15 07:14:39;;;;;;;31.67;19.60;;;;;;;3.03;65.34;102616.19;5005057;28;20563;-58
2021/12/15 07:17:10;;;;;;;28.38;19.77;;;;;;;3.05;65.24;102627.44;5005904;28;20042;-59
2021/12/15 07:20:03;;;;;;;31.33;19.00;;;;;;;3.09;65.18;102626.59;5001467;28;20046;-58
2021/12/15 07:25:01;;;;;;;34.95;19.30;;;;;;;3.32;65.20;102631.03;4982861;28;20491;-59
2021/12/15 07:27:28;;;;;;;33.22;19.52;;;;;;;3.34;64.75;102634.50;4986056;28;20118;-58
2021/12/15 07:29:55;;;;;;;40.30;20.98;;;;;;;3.35;64.65;102624.97;4988658;28;20507;-58
2021/12/15 07:32:22;;;;;;;51.17;22.33;;;;;;;3.38;64.51;102623.28;4987999;28;20046;-58
2021/12/15 07:34:49;;;;;;;40.63;22.95;;;;;;;3.43;64.59;102626.75;4988438;28;20054;-58
2021/12/15 07:37:15;;;;;;;33.72;20.25;;;;;;;3.47;64.23;102627.63;4996518;28;20045;-58
2021/12/15 07:39:53;;;;;;;31.60;19.55;;;;;;;3.53;64.07;102629.38;4992841;28;20057;-58
2021/12/15 07:42:30;;;;;;;31.27;19.17;;;;;;;3.62;64.23;102628.53;5006545;28;20498;-59
2021/12/15 07:44:56;;;;;;;31.30;18.17;;;;;;;3.69;64.06;102633.75;4988307;28;20438;-61
2021/12/15 07:47:23;;;;;;;32.50;18.30;;;;;;;3.75;63.85;102633.75;4988305;28;20069;-58
2021/12/15 07:49:50;;;;;;;36.40;18.27;;;;;;;3.80;63.72;102638.97;4998670;28;20792;-60
2021/12/15 07:52:19;;;;;;;34.58;17.75;;;;;;;3.90;63.76;102639.88;4998923;28;20465;-58
2021/12/15 07:54:45;;;;;;;34.42;18.63;;;;;;;3.95;63.77;102635.56;5002015;28;20108;-58
2021/12/15 07:57:17;;;;;;;34.25;19.45;;;;;;;4.02;63.69;102634.66;5005276;28;20054;-61
2021/12/15 07:59:44;;;;;;;34.38;17.95;;;;;;;4.10;63.68;102639.88;4996701;28;20057;-59
2021/12/15 08:02:11;;;;;;;31.55;18.00;;;;;;;4.17;63.42;102633.81;4997479;28;20048;-58
2021/12/15 08:04:38;;;;;;;31.73;17.08;;;;;;;4.28;63.51;102640.75;5005906;28;20046;-59
2021/12/15 08:07:05;;;;;;;26.13;15.55;;;;;;;4.35;63.37;102640.75;5005161;28;20050;-59
2021/12/15 08:09:35;;;;;;;24.75;15.68;;;;;;;4.44;63.50;102639.91;5000423;28;20073;-59
2021/12/15 08:12:02;;;;;;;26.92;15.77;;;;;;;4.59;63.16;102644.22;5007308;28;20045;-59
2021/12/15 08:14:29;;;;;;;28.10;15.88;;;;;;;4.76;62.91;102651.16;5007011;28;20125;-60
2021/12/15 08:16:55;;;;;;;23.75;15.50;;;;;;;4.90;62.72;102645.06;5008399;28;20061;-59
2021/12/15 08:19:22;;;;;;;28.77;17.45;;;;;;;5.04;62.65;102655.44;4995596;28;20058;-60
2021/12/15 08:21:49;;;;;;;28.65;16.88;;;;;;;5.36;62.19;102648.41;4991470;28;20038;-60
2021/12/15 08:24:16;;;;;;;29.70;17.77;;;;;;;5.72;61.23;102651.69;4992151;28;20105;-60
2021/12/15 08:26:43;;;;;;;27.27;16.80;;;;;;;5.97;60.47;102660.22;4992465;28;20042;-62
2021/12/15 08:29:11;;;;;;;28.42;17.13;;;;;;;6.20;60.32;102647.06;4990322;28;20541;-60
2021/12/15 08:31:39;;;;;;;31.00;15.82;;;;;;;6.47;59.88;102645.09;4991717;28;20046;-60
2021/12/15 08:34:08;;;;;;;26.63;15.85;;;;;;;6.70;59.52;102638.81;4990573;28;20490;-62
2021/12/15 08:36:38;;;;;;;28.73;14.73;;;;;;;6.90;59.21;102648.19;4991745;28;20085;-60
2021/12/15 08:39:07;;;;;;;21.80;12.95;;;;;;;7.11;58.91;102653.19;4992867;28;20049;-60
2021/12/15 08:41:35;;;;;;;22.45;15.82;;;;;;;7.41;58.31;102651.06;5001350;28;20537;-60
2021/12/15 08:44:06;;;;;;;27.98;16.67;;;;;;;7.61;57.92;102656.06;5000556;28;20051;-59
2021/12/15 08:46:39;;;;;;;29.92;16.90;;;;;;;7.83;57.63;102661.88;5000497;28;20088;-60
2021/12/15 08:49:09;;;;;;;26.40;15.40;;;;;;;7.96;57.58;102659.03;5008774;28;20125;-60
2021/12/15 08:51:36;;;;;;;26.63;15.85;;;;;;;8.09;57.34;102667.59;4995364;28;20046;-60
2021/12/15 08:54:09;;;;;;;26.55;16.00;;;;;;;8.13;57.56;102661.44;5002558;28;20449;-59
2021/12/15 08:56:36;;;;;;;39.78;19.90;;;;;;;8.10;57.69;102656.22;4992591;28;20050;-59
2021/12/15 08:59:05;;;;;;;51.10;32.35;;;;;;;8.12;57.73;102664.94;4991288;28;20122;-60
2021/12/15 09:01:33;;;;;;;37.28;22.15;;;;;;;8.24;57.90;102666.47;4991532;28;20051;-59
2021/12/15 09:04:00;;;;;;;33.33;19.90;;;;;;;8.42;57.57;102670.56;4991080;28;20545;-59
2021/12/15 09:06:27;;;;;;;26.55;14.48;;;;;;;8.57;57.36;102667.72;4990267;28;20049;-60
2021/12/15 09:08:54;;;;;;;23.48;13.55;;;;;;;8.78;56.85;102670.84;4991189;28;20054;-59
2021/12/15 09:11:24;;;;;;;38.90;26.60;;;;;;;8.94;56.62;102677.53;4991092;28;20043;-60
2021/12/15 09:13:52;;;;;;;23.48;14.57;;;;;;;9.13;56.29;102672.81;4990954;28;20458;-63
2021/12/15 09:16:20;;;;;;;61.45;29.33;;;;;;;9.32;55.77;102670.69;4990711;28;20145;-59
2021/12/15 09:18:49;;;;;;;73.38;33.83;;;;;;;9.50;55.50;102678.19;4989690;28;20050;-59
2021/12/15 09:21:19;;;;;;;240.93;132.18;;;;;;;9.67;55.22;102677.84;4990837;28;20042;-61
2021/12/15 09:23:46;;;;;;;193.57;107.28;;;;;;;9.84;55.03;102675.72;4989392;28;20418;-59
2021/12/15 09:26:14;;;;;;;73.55;44.47;;;;;;;10.02;54.61;102677.06;4990650;28;20454;-59
2021/12/15 09:28:41;;;;;;;111.35;65.97;;;;;;;10.22;54.42;102670.47;4990687;28;20050;-60
2021/12/15 09:31:09;;;;;;;112.05;64.45;;;;;;;10.39;54.19;102668.31;4990515;28;20046;-60
2021/12/15 09:33:38;;;;;;;74.07;42.53;;;;;;;10.56;53.89;102670.53;4990854;28;20585;-65
2021/12/15 09:36:05;;;;;;;89.28;48.45;;;;;;;10.70;53.60;102664.91;4990694;28;20072;-59
2021/12/15 09:38:33;;;;;;;91.50;50.35;;;;;;;10.79;53.21;102663.81;4990483;28;20096;-60
2021/12/15 09:41:06;;;;;;;81.60;46.15;;;;;;;10.87;52.94;102664.47;4989572;28;20061;-59
2021/12/15 09:43:34;;;;;;;45.85;28.58;;;;;;;10.93;52.68;102661.69;4990464;28;20042;-59
2021/12/15 09:46:13;;;;;;;91.65;48.83;;;;;;;11.05;52.47;102660.47;4990409;28;20410;-59
2021/12/15 10:18:33;;;;;;;44.63;24.70;;;;;;;12.38;50.23;102658.25;5007915;28;20041;-60
2021/12/15 10:21:01;;;;;;;90.78;42.83;;;;;;;12.56;50.16;102656.78;5002103;28;20129;-58
2021/12/15 10:23:37;;;;;;;69.68;31.83;;;;;;;12.66;50.00;102650.28;5005854;28;20104;-59
2021/12/15 10:26:06;;;;;;;52.92;27.65;;;;;;;12.80;49.71;102654.19;5006924;28;20046;-59
2021/12/15 10:28:35;;;;;;;119.63;65.00;;;;;;;12.85;49.77;102653.13;5001645;28;20041;-59
2021/12/15 10:31:08;;;;;;;28.15;16.50;;;;;;;13.11;49.92;102653.94;4998100;28;20520;-59
2021/12/15 10:33:43;;;;;;;34.13;20.17;;;;;;;13.33;50.73;102651.38;5001720;28;20046;-59
2021/12/15 10:36:16;;;;;;;52.42;26.17;;;;;;;13.50;51.09;102653.41;5003357;28;20129;-60
2021/12/15 10:38:48;;;;;;;54.75;27.50;;;;;;;13.58;51.23;102644.34;5006336;28;20041;-59
2021/12/15 10:41:15;;;;;;;44.72;22.98;;;;;;;13.53;51.99;102644.50;5005171;28;20069;-57
2021/12/15 10:43:45;;;;;;;37.50;21.17;;;;;;;13.60;51.89;102640.72;5006176;28;20469;-59
2021/12/15 10:46:17;;;;;;;32.95;18.85;;;;;;;13.68;52.11;102635.16;5007007;28;20564;-60
2021/12/15 10:48:52;;;;;;;18.70;11.30;;;;;;;13.30;52.66;102640.94;5007241;28;20054;-59
2021/12/15 10:51:29;;;;;;;35.08;23.42;;;;;;;13.08;52.52;102643.53;5005849;28;20128;-59
2021/12/15 10:54:02;;;;;;;32.55;20.92;;;;;;;12.89;52.52;102643.34;4988867;28;20079;-60
2021/12/15 10:56:33;;;;;;;16.33;11.77;;;;;;;12.67;52.57;102640.59;4995740;28;20529;-60
2021/12/15 10:59:05;;;;;;;27.73;19.33;;;;;;;12.46;52.89;102639.56;4989021;28;20048;-61
2021/12/15 11:01:39;;;;;;;32.83;17.92;;;;;;;12.22;52.97;102640.31;4988818;28;20096;-59
2021/12/15 11:04:27;;;;;;;72.45;45.05;;;;;;;12.04;53.30;102639.16;4991384;28;20050;-59
2021/12/15 11:07:11;;;;;;;30.00;20.38;;;;;;;11.77;53.89;102638.25;5004562;28;20050;-59
2021/12/15 11:09:42;;;;;;;111.53;62.35;;;;;;;11.52;54.52;102636.34;5003116;28;20042;-59
2021/12/15 11:12:25;;;;;;;20.25;14.77;;;;;;;11.29;55.22;102631.78;5005443;28;20153;-60
2021/12/15 11:15:06;;;;;;;33.80;21.45;;;;;;;11.13;55.70;102643.66;4996517;28;20442;-58
2021/12/15 11:17:43;;;;;;;73.65;44.00;;;;;;;10.91;56.22;102633.75;4995347;28;20049;-59
2021/12/15 11:20:16;;;;;;;21.30;16.05;;;;;;;10.78;56.69;102634.06;4999479;28;20119;-58
2021/12/15 11:23:07;;;;;;;32.58;24.20;;;;;;;10.67;56.72;102636.13;4991357;28;20105;-59
2021/12/15 11:25:59;;;;;;;29.50;23.40;;;;;;;10.63;56.83;102634.50;4983862;28;20108;-59
2021/12/15 11:28:50;;;;;;;25.85;19.52;;;;;;;10.55;56.82;102639.06;4983955;28;20047;-60
2021/12/15 11:31:27;;;;;;;20.42;15.02;;;;;;;10.56;56.70;102630.28;4985872;28;20104;-59
2021/12/15 11:34:06;;;;;;;30.65;19.42;;;;;;;10.54;56.99;102643.47;4990066;28;20050;-59
2021/12/15 11:36:44;;;;;;;46.55;25.30;;;;;;;10.54;56.85;102640.84;5006852;28;20046;-59
2021/12/15 11:39:17;;;;;;;31.80;19.08;;;;;;;10.50;57.11;102647.06;4994933;28;20164;-61
2021/12/15 11:41:54;;;;;;;24.55;16.52;;;;;;;10.45;57.22;102643.72;4995725;28;20057;-60
2021/12/15 11:44:25;;;;;;;23.67;17.63;;;;;;;10.44;57.39;102639.34;5003254;28;20046;-60
2021/12/15 11:46:54;;;;;;;40.67;23.60;;;;;;;10.40;57.82;102642.97;5001408;28;20057;-61
2021/12/15 11:49:29;;;;;;;29.90;18.77;;;;;;;10.40;57.77;102638.56;4999575;28;20042;-61
2021/12/15 11:52:03;;;;;;;31.90;21.05;;;;;;;10.40;57.77;102640.34;4992496;28;20490;-60
2021/12/15 11:54:45;;;;;;;28.13;19.52;;;;;;;10.39;57.99;102644.72;4996265;28;20042;-61
2021/12/15 11:57:15;;;;;;;28.20;19.52;;;;;;;10.45;58.06;102641.94;4990611;28;20054;-61
2021/12/15 11:59:49;;;;;;;29.40;22.63;;;;;;;10.42;58.10;102638.53;4992458;28;20486;-60
2021/12/15 12:02:30;;;;;;;29.40;20.77;;;;;;;10.38;58.36;102636.88;4992523;28;20408;-60
2021/12/15 12:05:03;;;;;;;32.67;22.88;;;;;;;10.38;58.38;102632.47;4992211;28;20050;-61
2021/12/15 12:07:33;;;;;;;49.17;35.08;;;;;;;10.40;58.54;102630.69;4992310;28;20097;-60
2021/12/15 12:10:06;;;;;;;21.80;14.32;;;;;;;10.74;57.99;102626.31;4991449;28;20042;-59
2021/12/15 12:12:42;;;;;;;28.88;20.33;;;;;;;10.63;58.65;102626.59;4992213;28;20043;-59
2021/12/15 12:15:13;;;;;;;;;;;;;;;10.54;58.98;102624.19;5002839;28;20050;-60
2021/12/15 12:17:42;;;;;;;31.38;21.88;;;;;;;10.51;58.94;102621.69;4991748;28;19930;-59
2021/12/15 12:20:19;;;;;;;36.47;21.73;;;;;;;10.44;59.09;102616.56;5000016;28;20054;-59
2021/12/15 12:22:49;;;;;;;39.60;23.55;;;;;;;10.41;59.09;102614.03;4995958;28;20121;-59
2021/12/15 12:25:20;;;;;;;36.80;23.20;;;;;;;10.39;59.20;102618.47;4998738;28;20043;-60
2021/12/15 12:27:48;;;;;;;68.20;36.75;;;;;;;10.38;58.93;102614.09;4991842;28;20136;-60
2021/12/15 12:30:24;;;;;;;33.25;20.27;;;;;;;10.39;58.95;102615.00;4991466;28;20498;-64
2021/12/15 12:32:52;;;;;;;37.17;23.60;;;;;;;10.41;58.80;102615.78;4996878;28;20379;-70
2021/12/15 12:35:24;;;;;;;39.40;26.20;;;;;;;10.42;58.79;102615.78;5008484;28;20096;-59
2021/12/15 12:37:55;;;;;;;60.00;34.95;;;;;;;10.40;58.95;102612.31;4995009;28;20050;-58
2021/12/15 12:40:31;;;;;;;49.03;28.48;;;;;;;10.39;58.93;102601.88;4992046;28;20046;-61
2021/12/15 12:42:59;;;;;;;26.20;17.77;;;;;;;10.38;59.08;102603.59;5007274;28;20050;-61
2021/12/15 12:45:38;;;;;;;26.77;18.50;;;;;;;10.38;58.80;102605.38;5009137;28;20042;-61
2021/12/15 12:59:26;;;;;;;26.52;19.15;;;;;;;10.32;59.16;102598.47;5005630;28;20042;-62
2021/12/15 13:01:54;;;;;;;27.88;18.10;;;;;;;10.29;59.24;102596.81;5007613;28;20076;-60
2021/12/15 13:04:21;;;;;;;25.77;17.73;;;;;;;10.27;59.08;102601.25;5004042;28;20046;-60